createdAt,value
2018-12-21T00:00:20.566Z,1005.04
2018-12-21T00:01:20.537Z,1005.04
2018-12-21T00:02:20.512Z,1005.04
2018-12-21T00:03:20.489Z,1005.02
2018-12-21T00:04:20.467Z,1005.03
2018-12-21T00:05:20.442Z,1005.03
2018-12-21T00:06:20.420Z,1004.99
2018-12-21T00:07:20.396Z,1004.97
2018-12-21T00:08:20.375Z,1004.94
2018-12-21T00:09:20.353Z,1004.97
2018-12-21T00:10:20.329Z,1004.95
2018-12-21T00:11:20.306Z,1004.91
2018-12-21T00:12:20.282Z,1004.88
2018-12-21T00:13:20.259Z,1004.94
2018-12-21T00:14:20.235Z,1004.92
2018-12-21T00:15:20.217Z,1004.93
2018-12-21T00:16:20.188Z,1004.88
2018-12-21T00:17:20.167Z,1004.88
2018-12-21T00:18:20.141Z,1004.89
2018-12-21T00:19:20.121Z,1004.84
2018-12-21T00:20:20.115Z,1004.83
2018-12-21T00:21:21.965Z,1004.81
2018-12-21T00:22:20.052Z,1004.78
2018-12-21T00:23:20.044Z,1004.74
2018-12-21T00:24:20.004Z,1004.74
2018-12-21T00:25:19.983Z,1004.74
2018-12-21T00:26:19.955Z,1004.71
2018-12-21T00:27:19.949Z,1004.70
2018-12-21T00:28:19.910Z,1004.66
2018-12-21T00:29:19.885Z,1004.69
2018-12-21T00:30:19.862Z,1004.66
2018-12-21T00:31:19.840Z,1004.66
2018-12-21T00:32:19.816Z,1004.66
2018-12-21T00:33:19.794Z,1004.63
2018-12-21T00:34:19.769Z,1004.63
2018-12-21T00:35:19.744Z,1004.62
2018-12-21T00:36:19.724Z,1004.61
2018-12-21T00:37:19.704Z,1004.59
2018-12-21T00:38:19.692Z,1004.56
2018-12-21T00:39:19.656Z,1004.60
2018-12-21T00:40:19.632Z,1004.61
2018-12-21T00:41:19.609Z,1004.60
2018-12-21T00:42:19.585Z,1004.62
2018-12-21T00:43:19.561Z,1004.61
2018-12-21T00:44:19.537Z,1004.64
2018-12-21T00:45:19.512Z,1004.58
2018-12-21T00:46:19.490Z,1004.62
2018-12-21T00:47:19.468Z,1004.59
2018-12-21T00:48:19.444Z,1004.61
2018-12-21T00:49:19.419Z,1004.61
2018-12-21T00:50:19.396Z,1004.58
2018-12-21T00:51:19.375Z,1004.60
2018-12-21T00:52:19.361Z,1004.53
2018-12-21T00:53:19.328Z,1004.56
2018-12-21T00:54:19.307Z,1004.52
2018-12-21T00:55:19.288Z,1004.51
2018-12-21T00:56:19.259Z,1004.45
2018-12-21T00:57:19.302Z,1004.44
2018-12-21T00:58:19.212Z,1004.41
2018-12-21T00:59:19.187Z,1004.37
2018-12-21T01:00:19.166Z,1004.40
2018-12-21T01:01:19.141Z,1004.35
2018-12-21T01:02:19.122Z,1004.36
2018-12-21T01:03:19.095Z,1004.35
2018-12-21T01:04:19.073Z,1004.35
2018-12-21T01:05:19.047Z,1004.35
2018-12-21T01:06:19.025Z,1004.33
2018-12-21T01:07:19.010Z,1004.33
2018-12-21T01:08:18.980Z,1004.28
2018-12-21T01:09:18.963Z,1004.26
2018-12-21T01:10:18.934Z,1004.31
2018-12-21T01:11:18.909Z,1004.28
2018-12-21T01:12:18.885Z,1004.30
2018-12-21T01:13:18.870Z,1004.29
2018-12-21T01:14:18.842Z,1004.30
2018-12-21T01:15:18.817Z,1004.22
2018-12-21T01:16:18.793Z,1004.27
2018-12-21T01:17:18.777Z,1004.27
2018-12-21T01:18:18.757Z,1004.29
2018-12-21T01:19:18.731Z,1004.28
2018-12-21T01:20:18.701Z,1004.28
2018-12-21T01:21:18.676Z,1004.25
2018-12-21T01:22:18.653Z,1004.32
2018-12-21T01:23:18.629Z,1004.26
2018-12-21T01:24:18.605Z,1004.28
2018-12-21T01:25:18.585Z,1004.30
2018-12-21T01:26:18.561Z,1004.32
2018-12-21T01:27:18.535Z,1004.31
2018-12-21T01:28:18.513Z,1004.31
2018-12-21T01:29:18.491Z,1004.32
2018-12-21T01:30:18.467Z,1004.24
2018-12-21T01:31:18.441Z,1004.19
2018-12-21T01:32:18.422Z,1004.20
2018-12-21T01:33:18.393Z,1004.22
2018-12-21T01:34:18.372Z,1004.27
2018-12-21T01:35:18.349Z,1004.20
2018-12-21T01:36:18.325Z,1004.22
2018-12-21T01:37:18.306Z,1004.19
2018-12-21T01:38:18.279Z,1004.21
2018-12-21T01:39:18.269Z,1004.18
2018-12-21T01:40:18.240Z,1004.17
2018-12-21T01:41:18.209Z,1004.16
2018-12-21T01:42:18.185Z,1004.15
2018-12-21T01:43:18.171Z,1004.14
2018-12-21T01:44:18.140Z,1004.13
2018-12-21T01:45:18.114Z,1004.10
2018-12-21T01:46:18.105Z,1004.13
2018-12-21T01:47:18.070Z,1004.10
2018-12-21T01:48:18.045Z,1004.06
2018-12-21T01:49:18.022Z,1004.06
2018-12-21T01:50:18.001Z,1004.01
2018-12-21T01:51:17.983Z,1004.04
2018-12-21T01:52:17.953Z,1003.99
2018-12-21T01:53:17.932Z,1003.96
2018-12-21T01:54:17.910Z,1004.01
2018-12-21T01:55:17.886Z,1003.99
2018-12-21T01:56:17.862Z,1003.97
2018-12-21T01:57:17.843Z,1003.98
2018-12-21T01:58:17.814Z,1004.00
2018-12-21T01:59:17.793Z,1003.95
2018-12-21T02:00:17.773Z,1003.99
2018-12-21T02:01:17.746Z,1003.97
2018-12-21T02:02:17.720Z,1003.93
2018-12-21T02:03:17.695Z,1003.91
2018-12-21T02:04:17.687Z,1003.83
2018-12-21T02:05:17.654Z,1003.84
2018-12-21T02:06:17.634Z,1003.82
2018-12-21T02:07:17.608Z,1003.79
2018-12-21T02:08:17.582Z,1003.80
2018-12-21T02:09:17.559Z,1003.79
2018-12-21T02:10:17.533Z,1003.78
2018-12-21T02:11:17.517Z,1003.73
2018-12-21T02:12:17.526Z,1003.74
2018-12-21T02:13:17.468Z,1003.66
2018-12-21T02:14:17.441Z,1003.69
2018-12-21T02:15:17.420Z,1003.64
2018-12-21T02:16:17.397Z,1003.67
2018-12-21T02:17:17.380Z,1003.62
2018-12-21T02:18:17.358Z,1003.52
2018-12-21T02:19:17.327Z,1003.55
2018-12-21T02:20:17.305Z,1003.50
2018-12-21T02:21:17.288Z,1003.51
2018-12-21T02:22:17.262Z,1003.53
2018-12-21T02:23:17.235Z,1003.51
2018-12-21T02:24:17.211Z,1003.47
2018-12-21T02:25:17.187Z,1003.46
2018-12-21T02:26:17.165Z,1003.47
2018-12-21T02:27:17.143Z,1003.46
2018-12-21T02:28:17.121Z,1003.50
2018-12-21T02:29:17.097Z,1003.49
2018-12-21T02:30:17.090Z,1003.47
2018-12-21T02:31:17.050Z,1003.45
2018-12-21T02:32:17.026Z,1003.46
2018-12-21T02:33:17.002Z,1003.42
2018-12-21T02:34:16.980Z,1003.43
2018-12-21T02:35:16.960Z,1003.42
2018-12-21T02:36:16.931Z,1003.41
2018-12-21T02:37:16.910Z,1003.37
2018-12-21T02:38:16.894Z,1003.35
2018-12-21T02:39:16.865Z,1003.36
2018-12-21T02:40:16.841Z,1003.36
2018-12-21T02:41:16.820Z,1003.33
2018-12-21T02:42:16.792Z,1003.33
2018-12-21T02:43:16.773Z,1003.34
2018-12-21T02:44:16.747Z,1003.34
2018-12-21T02:45:16.723Z,1003.32
2018-12-21T02:46:16.703Z,1003.32
2018-12-21T02:47:16.678Z,1003.32
2018-12-21T02:48:16.653Z,1003.33
2018-12-21T02:49:16.628Z,1003.35
2018-12-21T02:50:16.608Z,1003.33
2018-12-21T02:51:16.589Z,1003.31
2018-12-21T02:52:16.561Z,1003.29
2018-12-21T02:53:16.540Z,1003.30
2018-12-21T02:54:16.516Z,1003.32
2018-12-21T02:55:16.490Z,1003.33
2018-12-21T02:56:16.469Z,1003.31
2018-12-21T02:57:16.445Z,1003.30
2018-12-21T02:58:16.429Z,1003.28
2018-12-21T02:59:16.399Z,1003.28
2018-12-21T03:00:16.382Z,1003.30
2018-12-21T03:01:16.356Z,1003.26
2018-12-21T03:02:16.328Z,1003.22
2018-12-21T03:03:16.313Z,1003.21
2018-12-21T03:04:16.287Z,1003.13
2018-12-21T03:05:16.260Z,1003.17
2018-12-21T03:06:16.242Z,1003.14
2018-12-21T03:07:16.215Z,1003.12
2018-12-21T03:08:16.193Z,1003.10
2018-12-21T03:09:16.178Z,1003.15
2018-12-21T03:10:16.148Z,1003.10
2018-12-21T03:11:16.119Z,1003.08
2018-12-21T03:12:16.099Z,1003.10
2018-12-21T03:13:16.072Z,1003.08
2018-12-21T03:14:16.050Z,1003.13
2018-12-21T03:15:16.027Z,1003.06
2018-12-21T03:16:16.004Z,1003.03
2018-12-21T03:17:15.989Z,1003.01
2018-12-21T03:18:15.967Z,1003.02
2018-12-21T03:19:15.934Z,1002.98
2018-12-21T03:20:15.919Z,1002.95
2018-12-21T03:21:15.892Z,1002.85
2018-12-21T03:22:15.870Z,1002.90
2018-12-21T03:23:15.847Z,1002.86
2018-12-21T03:24:15.821Z,1002.77
2018-12-21T03:25:15.798Z,1002.83
2018-12-21T03:26:15.774Z,1002.80
2018-12-21T03:27:15.751Z,1002.77
2018-12-21T03:28:15.730Z,1002.67
2018-12-21T03:29:15.708Z,1002.67
2018-12-21T03:30:15.687Z,1002.64
2018-12-21T03:31:15.663Z,1002.64
2018-12-21T03:32:15.649Z,1002.58
2018-12-21T03:33:15.616Z,1002.53
2018-12-21T03:34:15.593Z,1002.51
2018-12-21T03:35:15.567Z,1002.48
2018-12-21T03:36:15.554Z,1002.42
2018-12-21T03:37:15.530Z,1002.50
2018-12-21T03:38:15.497Z,1002.48
2018-12-21T03:39:15.476Z,1002.39
2018-12-21T03:40:15.454Z,1002.36
2018-12-21T03:41:15.429Z,1002.34
2018-12-21T03:42:15.410Z,1002.25
2018-12-21T03:43:15.383Z,1002.31
2018-12-21T03:44:15.360Z,1002.24
2018-12-21T03:45:15.336Z,1002.22
2018-12-21T03:46:15.315Z,1002.15
2018-12-21T03:47:15.292Z,1002.06
2018-12-21T03:48:15.280Z,1001.99
2018-12-21T03:49:15.249Z,1001.94
2018-12-21T03:50:15.222Z,1001.85
2018-12-21T03:51:15.200Z,1001.85
2018-12-21T03:52:23.992Z,1001.87
2018-12-21T03:53:15.151Z,1001.85
2018-12-21T03:54:15.129Z,1001.87
2018-12-21T03:55:15.108Z,1001.83
2018-12-21T03:56:15.081Z,1001.85
2018-12-21T03:57:15.064Z,1001.73
2018-12-21T03:58:15.043Z,1001.74
2018-12-21T03:59:15.015Z,1001.71
2018-12-21T04:00:14.998Z,1001.75
2018-12-21T04:01:14.965Z,1001.70
2018-12-21T04:02:14.944Z,1001.67
2018-12-21T04:03:14.923Z,1001.70
2018-12-21T04:04:14.899Z,1001.67
2018-12-21T04:05:14.873Z,1001.67
2018-12-21T04:06:14.852Z,1001.60
2018-12-21T04:07:14.831Z,1001.63
2018-12-21T04:08:14.805Z,1001.62
2018-12-21T04:09:14.784Z,1001.60
2018-12-21T04:10:14.766Z,1001.58
2018-12-21T04:11:14.735Z,1001.57
2018-12-21T04:12:14.714Z,1001.59
2018-12-21T04:13:14.694Z,1001.53
2018-12-21T04:14:14.666Z,1001.48
2018-12-21T04:15:14.641Z,1001.48
2018-12-21T04:16:14.623Z,1001.47
2018-12-21T04:17:14.593Z,1001.46
2018-12-21T04:18:14.575Z,1001.44
2018-12-21T04:19:14.551Z,1001.44
2018-12-21T04:20:14.531Z,1001.42
2018-12-21T04:21:14.503Z,1001.37
2018-12-21T04:22:14.479Z,1001.31
2018-12-21T04:23:14.456Z,1001.30
2018-12-21T04:24:14.435Z,1001.25
2018-12-21T04:25:14.410Z,1001.26
2018-12-21T04:26:14.389Z,1001.27
2018-12-21T04:27:14.364Z,1001.22
2018-12-21T04:28:14.343Z,1001.22
2018-12-21T04:29:14.318Z,1001.21
2018-12-21T04:30:14.294Z,1001.15
2018-12-21T04:31:14.274Z,1001.17
2018-12-21T04:32:14.254Z,1001.18
2018-12-21T04:33:14.235Z,1001.19
2018-12-21T04:34:14.202Z,1001.13
2018-12-21T04:35:14.178Z,1001.14
2018-12-21T04:36:14.156Z,1001.12
2018-12-21T04:37:14.154Z,1001.13
2018-12-21T04:38:14.111Z,1001.10
2018-12-21T04:39:14.088Z,1001.10
2018-12-21T04:40:14.065Z,1001.09
2018-12-21T04:41:14.039Z,1001.00
2018-12-21T04:42:14.020Z,1001.01
2018-12-21T04:43:13.992Z,1000.97
2018-12-21T04:44:13.972Z,1001.00
2018-12-21T04:45:13.945Z,1000.96
2018-12-21T04:46:13.931Z,1000.93
2018-12-21T04:47:13.902Z,1000.94
2018-12-21T04:48:13.972Z,1000.89
2018-12-21T04:49:13.864Z,1000.82
2018-12-21T04:50:13.830Z,1000.85
2018-12-21T04:51:13.808Z,1000.86
2018-12-21T04:52:13.787Z,1000.87
2018-12-21T04:53:13.765Z,1000.77
2018-12-21T04:54:13.739Z,1000.77
2018-12-21T04:55:13.715Z,1000.76
2018-12-21T04:56:13.694Z,1000.76
2018-12-21T04:57:13.669Z,1000.70
2018-12-21T04:58:13.652Z,1000.68
2018-12-21T04:59:13.623Z,1000.64
2018-12-21T05:00:13.601Z,1000.66
2018-12-21T05:01:13.580Z,1000.64
2018-12-21T05:02:13.555Z,1000.60
2018-12-21T05:03:13.530Z,1000.51
2018-12-21T05:04:19.889Z,1000.48
2018-12-21T05:05:13.488Z,1000.44
2018-12-21T05:06:13.462Z,1000.51
2018-12-21T05:07:13.480Z,1000.41
2018-12-21T05:08:13.416Z,1000.45
2018-12-21T05:09:13.392Z,1000.42
2018-12-21T05:10:13.367Z,1000.37
2018-12-21T05:11:13.347Z,1000.38
2018-12-21T05:12:13.323Z,1000.36
2018-12-21T05:13:13.304Z,1000.38
2018-12-21T05:14:13.278Z,1000.34
2018-12-21T05:15:13.257Z,1000.37
2018-12-21T05:16:13.233Z,1000.34
2018-12-21T05:17:13.208Z,1000.28
2018-12-21T05:18:13.182Z,1000.32
2018-12-21T05:19:13.166Z,1000.18
2018-12-21T05:20:13.141Z,1000.19
2018-12-21T05:21:13.117Z,1000.27
2018-12-21T05:22:13.091Z,1000.18
2018-12-21T05:23:13.069Z,1000.19
2018-12-21T05:24:13.047Z,1000.14
2018-12-21T05:25:13.026Z,1000.13
2018-12-21T05:26:13.009Z,1000.08
2018-12-21T05:27:12.976Z,1000.09
2018-12-21T05:28:12.954Z,1000.04
2018-12-21T05:29:12.930Z,1000.06
2018-12-21T05:30:12.916Z,1000.05
2018-12-21T05:31:12.886Z,999.97
2018-12-21T05:32:12.904Z,1000.00
2018-12-21T05:33:12.842Z,999.93
2018-12-21T05:34:12.819Z,999.96
2018-12-21T05:35:12.799Z,999.92
2018-12-21T05:36:12.771Z,999.96
2018-12-21T05:37:12.747Z,999.90
2018-12-21T05:38:12.722Z,999.88
2018-12-21T05:39:12.704Z,999.90
2018-12-21T05:40:12.675Z,999.83
2018-12-21T05:41:12.656Z,999.83
2018-12-21T05:42:12.633Z,999.80
2018-12-21T05:43:12.608Z,999.74
2018-12-21T05:44:12.585Z,999.76
2018-12-21T05:45:12.562Z,999.68
2018-12-21T05:46:12.538Z,999.65
2018-12-21T05:47:12.517Z,999.62
2018-12-21T05:48:12.493Z,999.62
2018-12-21T05:49:12.470Z,999.53
2018-12-21T05:50:12.449Z,999.49
2018-12-21T05:51:12.423Z,999.44
2018-12-21T05:52:12.400Z,999.48
2018-12-21T05:53:12.378Z,999.46
2018-12-21T05:54:12.354Z,999.45
2018-12-21T05:55:12.330Z,999.38
2018-12-21T05:56:12.307Z,999.33
2018-12-21T05:57:12.284Z,999.32
2018-12-21T05:58:12.260Z,999.25
2018-12-21T05:59:12.238Z,999.30
2018-12-21T06:00:12.215Z,999.29
2018-12-21T06:01:12.240Z,999.32
2018-12-21T06:02:12.171Z,999.26
2018-12-21T06:03:12.146Z,999.25
2018-12-21T06:04:12.128Z,999.27
2018-12-21T06:05:12.160Z,999.24
2018-12-21T06:06:12.076Z,999.25
2018-12-21T06:07:12.053Z,999.26
2018-12-21T06:08:12.032Z,999.19
2018-12-21T06:09:12.010Z,999.18
2018-12-21T06:10:11.987Z,999.13
2018-12-21T06:11:11.960Z,999.14
2018-12-21T06:12:11.940Z,999.13
2018-12-21T06:13:11.922Z,999.13
2018-12-21T06:14:11.892Z,999.08
2018-12-21T06:15:11.873Z,999.07
2018-12-21T06:16:11.846Z,999.05
2018-12-21T06:17:11.825Z,999.04
2018-12-21T06:18:11.801Z,998.95
2018-12-21T06:19:12.332Z,998.92
2018-12-21T06:20:11.755Z,998.93
2018-12-21T06:21:11.730Z,998.83
2018-12-21T06:22:11.709Z,998.76
2018-12-21T06:23:11.686Z,998.66
2018-12-21T06:24:11.664Z,998.64
2018-12-21T06:25:11.648Z,998.54
2018-12-21T06:26:11.616Z,998.50
2018-12-21T06:27:11.594Z,998.44
2018-12-21T06:28:11.570Z,998.40
2018-12-21T06:29:11.547Z,998.35
2018-12-21T06:30:11.523Z,998.38
2018-12-21T06:31:11.501Z,998.39
2018-12-21T06:32:11.481Z,998.43
2018-12-21T06:33:11.458Z,998.36
2018-12-21T06:34:11.433Z,998.40
2018-12-21T06:35:11.411Z,998.39
2018-12-21T06:36:11.397Z,998.39
2018-12-21T06:37:11.372Z,998.36
2018-12-21T06:38:11.344Z,998.28
2018-12-21T06:39:11.323Z,998.26
2018-12-21T06:40:11.297Z,998.16
2018-12-21T06:41:11.271Z,998.23
2018-12-21T06:42:11.249Z,998.15
2018-12-21T06:43:11.230Z,998.17
2018-12-21T06:44:11.203Z,998.21
2018-12-21T06:45:11.178Z,998.20
2018-12-21T06:46:14.228Z,998.23
2018-12-21T06:47:11.140Z,998.24
2018-12-21T06:48:11.111Z,998.23
2018-12-21T06:49:11.089Z,998.19
2018-12-21T06:50:11.064Z,998.10
2018-12-21T06:51:11.049Z,998.14
2018-12-21T06:52:11.019Z,998.14
2018-12-21T06:53:17.863Z,998.07
2018-12-21T06:54:10.974Z,998.05
2018-12-21T06:55:10.958Z,998.07
2018-12-21T06:56:10.931Z,998.02
2018-12-21T06:57:10.906Z,998.03
2018-12-21T06:58:10.883Z,997.98
2018-12-21T06:59:10.859Z,997.99
2018-12-21T07:00:10.837Z,997.98
2018-12-21T07:01:10.812Z,997.95
2018-12-21T07:02:10.793Z,997.88
2018-12-21T07:03:17.063Z,997.89
2018-12-21T07:04:10.752Z,997.82
2018-12-21T07:05:10.721Z,997.81
2018-12-21T07:06:10.708Z,997.79
2018-12-21T07:07:10.680Z,997.80
2018-12-21T07:08:10.653Z,997.86
2018-12-21T07:09:10.627Z,997.81
2018-12-21T07:10:10.605Z,997.74
2018-12-21T07:11:10.588Z,997.74
2018-12-21T07:12:10.656Z,997.71
2018-12-21T07:13:10.541Z,997.68
2018-12-21T07:14:10.515Z,997.58
2018-12-21T07:15:10.493Z,997.60
2018-12-21T07:16:10.484Z,997.53
2018-12-21T07:17:10.445Z,997.53
2018-12-21T07:18:10.424Z,997.47
2018-12-21T07:19:10.403Z,997.45
2018-12-21T07:20:10.377Z,997.38
2018-12-21T07:21:10.361Z,997.38
2018-12-21T07:22:10.329Z,997.41
2018-12-21T07:23:10.306Z,997.40
2018-12-21T07:24:10.282Z,997.35
2018-12-21T07:25:10.261Z,997.30
2018-12-21T07:26:10.250Z,997.26
2018-12-21T07:27:10.213Z,997.22
2018-12-21T07:28:10.191Z,997.19
2018-12-21T07:29:10.165Z,997.17
2018-12-21T07:30:10.144Z,997.14
2018-12-21T07:31:10.128Z,997.05
2018-12-21T07:32:10.107Z,996.99
2018-12-21T07:33:10.074Z,996.89
2018-12-21T07:34:10.054Z,996.84
2018-12-21T07:35:10.030Z,996.81
2018-12-21T07:36:10.013Z,996.72
2018-12-21T07:37:09.983Z,996.70
2018-12-21T07:38:09.959Z,996.65
2018-12-21T07:39:09.938Z,996.62
2018-12-21T07:40:09.913Z,996.66
2018-12-21T07:41:09.894Z,996.52
2018-12-21T07:42:09.867Z,996.54
2018-12-21T07:43:09.845Z,996.56
2018-12-21T07:44:09.827Z,996.56
2018-12-21T07:45:09.797Z,996.56
2018-12-21T07:46:09.776Z,996.54
2018-12-21T07:47:09.754Z,996.51
2018-12-21T07:48:09.729Z,996.44
2018-12-21T07:49:09.705Z,996.47
2018-12-21T07:50:09.691Z,996.44
2018-12-21T07:51:09.667Z,996.44
2018-12-21T07:52:09.677Z,996.42
2018-12-21T07:53:09.613Z,996.35
2018-12-21T07:54:09.593Z,996.38
2018-12-21T07:55:09.573Z,996.38
2018-12-21T07:56:09.545Z,996.31
2018-12-21T07:57:09.529Z,996.32
2018-12-21T07:58:09.503Z,996.25
2018-12-21T07:59:09.478Z,996.15
2018-12-21T08:00:09.459Z,996.12
2018-12-21T08:01:09.430Z,996.08
2018-12-21T08:02:09.409Z,996.13
2018-12-21T08:03:09.384Z,996.02
2018-12-21T08:04:09.362Z,995.98
2018-12-21T08:05:09.339Z,996.00
2018-12-21T08:06:09.323Z,996.00
2018-12-21T08:07:09.296Z,995.90
2018-12-21T08:08:09.269Z,995.84
2018-12-21T08:09:09.254Z,995.79
2018-12-21T08:10:09.222Z,995.75
2018-12-21T08:11:09.203Z,995.72
2018-12-21T08:12:09.178Z,995.75
2018-12-21T08:13:09.153Z,995.76
2018-12-21T08:14:09.236Z,995.72
2018-12-21T08:15:09.107Z,995.76
2018-12-21T08:16:09.083Z,995.72
2018-12-21T08:17:09.061Z,995.67
2018-12-21T08:18:09.039Z,995.70
2018-12-21T08:19:09.025Z,995.65
2018-12-21T08:20:08.993Z,995.59
2018-12-21T08:21:08.970Z,995.56
2018-12-21T08:22:08.947Z,995.50
2018-12-21T08:23:08.929Z,995.48
2018-12-21T08:24:08.901Z,995.49
2018-12-21T08:25:08.877Z,995.50
2018-12-21T08:26:08.854Z,995.46
2018-12-21T08:27:08.831Z,995.44
2018-12-21T08:28:08.822Z,995.45
2018-12-21T08:29:08.783Z,995.39
2018-12-21T08:30:08.761Z,995.40
2018-12-21T08:31:08.740Z,995.38
2018-12-21T08:32:08.718Z,995.37
2018-12-21T08:33:08.702Z,995.35
2018-12-21T08:34:08.670Z,995.32
2018-12-21T08:35:08.652Z,995.32
2018-12-21T08:36:08.630Z,995.29
2018-12-21T08:37:08.605Z,995.21
2018-12-21T08:38:08.578Z,995.24
2018-12-21T08:39:08.556Z,995.25
2018-12-21T08:40:08.533Z,995.17
2018-12-21T08:41:08.510Z,995.19
2018-12-21T08:42:08.493Z,995.21
2018-12-21T08:43:08.464Z,995.21
2018-12-21T08:44:08.443Z,995.15
2018-12-21T08:45:08.420Z,995.17
2018-12-21T08:46:08.403Z,995.16
2018-12-21T08:47:08.373Z,995.11
2018-12-21T08:48:08.351Z,995.09
2018-12-21T08:49:08.331Z,995.13
2018-12-21T08:50:08.310Z,995.10
2018-12-21T08:51:08.290Z,995.03
2018-12-21T08:52:08.262Z,995.06
2018-12-21T08:53:08.239Z,995.09
2018-12-21T08:54:08.220Z,995.02
2018-12-21T08:55:08.195Z,995.01
2018-12-21T08:56:08.169Z,994.97
2018-12-21T08:57:08.162Z,994.97
2018-12-21T08:58:08.130Z,994.96
2018-12-21T08:59:08.109Z,994.90
2018-12-21T09:00:08.085Z,994.85
2018-12-21T09:01:08.057Z,994.88
2018-12-21T09:02:08.032Z,994.82
2018-12-21T09:03:08.012Z,994.79
2018-12-21T09:04:07.992Z,994.74
2018-12-21T09:05:07.964Z,994.76
2018-12-21T09:06:07.942Z,994.66
2018-12-21T09:07:07.920Z,994.63
2018-12-21T09:08:07.892Z,994.65
2018-12-21T09:09:07.869Z,994.62
2018-12-21T09:10:07.849Z,994.60
2018-12-21T09:11:07.845Z,994.56
2018-12-21T09:12:07.802Z,994.61
2018-12-21T09:13:07.787Z,994.53
2018-12-21T09:14:07.765Z,994.47
2018-12-21T09:15:07.734Z,994.51
2018-12-21T09:16:07.729Z,994.44
2018-12-21T09:17:07.695Z,994.43
2018-12-21T09:18:07.666Z,994.42
2018-12-21T09:19:07.642Z,994.36
2018-12-21T09:20:07.629Z,994.34
2018-12-21T09:21:07.612Z,994.36
2018-12-21T09:22:07.574Z,994.32
2018-12-21T09:23:07.559Z,994.28
2018-12-21T09:24:07.530Z,994.24
2018-12-21T09:25:07.505Z,994.22
2018-12-21T09:26:07.488Z,994.22
2018-12-21T09:27:07.464Z,994.18
2018-12-21T09:28:07.470Z,994.18
2018-12-21T09:29:07.414Z,994.15
2018-12-21T09:30:07.390Z,994.11
2018-12-21T09:31:07.372Z,994.05
2018-12-21T09:32:07.346Z,994.05
2018-12-21T09:33:07.326Z,994.09
2018-12-21T09:34:07.298Z,994.02
2018-12-21T09:35:07.277Z,994.00
2018-12-21T09:36:07.254Z,993.96
2018-12-21T09:37:07.233Z,993.98
2018-12-21T09:38:07.209Z,993.91
2018-12-21T09:39:07.187Z,993.85
2018-12-21T09:40:07.168Z,993.78
2018-12-21T09:41:07.147Z,993.81
2018-12-21T09:42:07.117Z,993.81
2018-12-21T09:43:07.095Z,993.80
2018-12-21T09:44:07.088Z,993.79
2018-12-21T09:45:07.047Z,993.79
2018-12-21T09:46:07.027Z,993.74
2018-12-21T09:47:07.003Z,993.72
2018-12-21T09:48:06.992Z,993.72
2018-12-21T09:49:06.958Z,993.68
2018-12-21T09:50:06.940Z,993.62
2018-12-21T09:51:06.912Z,993.57
2018-12-21T09:52:06.899Z,993.54
2018-12-21T09:53:06.865Z,993.49
2018-12-21T09:54:10.025Z,993.43
2018-12-21T09:55:06.826Z,993.35
2018-12-21T09:56:06.797Z,993.34
2018-12-21T09:57:06.774Z,993.33
2018-12-21T09:58:06.755Z,993.28
2018-12-21T09:59:08.039Z,993.28
2018-12-21T10:00:06.709Z,993.24
2018-12-21T10:01:06.684Z,993.23
2018-12-21T10:02:06.661Z,993.21
2018-12-21T10:03:06.639Z,993.21
2018-12-21T10:04:06.615Z,993.22
2018-12-21T10:05:06.598Z,993.15
2018-12-21T10:06:06.573Z,993.11
2018-12-21T10:07:06.547Z,993.03
2018-12-21T10:08:06.525Z,993.07
2018-12-21T10:09:06.506Z,993.04
2018-12-21T10:10:06.489Z,993.02
2018-12-21T10:11:06.457Z,993.02
2018-12-21T10:12:06.446Z,992.98
2018-12-21T10:13:08.477Z,992.98
2018-12-21T10:14:06.389Z,992.93
2018-12-21T10:15:06.368Z,992.94
2018-12-21T10:16:06.344Z,992.90
2018-12-21T10:17:06.320Z,992.89
2018-12-21T10:18:06.298Z,992.84
2018-12-21T10:19:06.287Z,992.80
2018-12-21T10:20:06.254Z,992.82
2018-12-21T10:21:06.231Z,992.84
2018-12-21T10:22:06.213Z,992.78
2018-12-21T10:23:06.200Z,992.78
2018-12-21T10:24:06.174Z,992.76
2018-12-21T10:25:06.143Z,992.70
2018-12-21T10:26:06.122Z,992.77
2018-12-21T10:27:06.095Z,992.75
2018-12-21T10:28:06.072Z,992.68
2018-12-21T10:29:06.050Z,992.58
2018-12-21T10:30:06.026Z,992.48
2018-12-21T10:31:06.016Z,992.46
2018-12-21T10:32:05.982Z,992.46
2018-12-21T10:33:05.959Z,992.46
2018-12-21T10:34:05.944Z,992.42
2018-12-21T10:35:05.919Z,992.52
2018-12-21T10:36:05.896Z,992.45
2018-12-21T10:37:05.868Z,992.35
2018-12-21T10:38:05.855Z,992.38
2018-12-21T10:39:05.832Z,992.39
2018-12-21T10:40:05.803Z,992.37
2018-12-21T10:41:05.778Z,992.39
2018-12-21T10:42:05.766Z,992.32
2018-12-21T10:43:05.734Z,992.38
2018-12-21T10:44:05.720Z,992.30
2018-12-21T10:45:05.688Z,992.26
2018-12-21T10:46:05.669Z,992.24
2018-12-21T10:47:05.643Z,992.26
2018-12-21T10:48:05.623Z,992.36
2018-12-21T10:49:05.609Z,992.36
2018-12-21T10:50:05.576Z,992.21
2018-12-21T10:51:05.553Z,992.09
2018-12-21T10:52:05.540Z,992.22
2018-12-21T10:53:05.505Z,992.19
2018-12-21T10:54:05.487Z,992.17
2018-12-21T10:55:05.462Z,992.25
2018-12-21T10:56:05.438Z,992.22
2018-12-21T10:57:05.424Z,992.18
2018-12-21T10:58:05.405Z,992.07
2018-12-21T10:59:05.368Z,992.02
2018-12-21T11:00:05.349Z,991.93
2018-12-21T11:01:05.328Z,991.83
2018-12-21T11:02:05.306Z,991.74
2018-12-21T11:03:05.285Z,991.70
2018-12-21T11:04:05.269Z,991.92
2018-12-21T11:05:05.234Z,991.94
2018-12-21T11:06:05.219Z,992.00
2018-12-21T11:07:05.191Z,991.98
2018-12-21T11:08:05.174Z,992.00
2018-12-21T11:09:05.152Z,992.02
2018-12-21T11:10:05.122Z,991.95
2018-12-21T11:11:05.101Z,991.93
2018-12-21T11:12:05.081Z,991.82
2018-12-21T11:13:05.052Z,991.76
2018-12-21T11:14:05.037Z,991.74
2018-12-21T11:15:05.029Z,991.81
2018-12-21T11:16:04.987Z,991.78
2018-12-21T11:17:04.964Z,991.81
2018-12-21T11:18:04.940Z,991.86
2018-12-21T11:19:04.919Z,991.85
2018-12-21T11:20:04.902Z,991.90
2018-12-21T11:21:04.874Z,991.87
2018-12-21T11:22:04.850Z,991.83
2018-12-21T11:23:04.831Z,991.81
2018-12-21T11:24:04.807Z,991.75
2018-12-21T11:25:04.798Z,991.70
2018-12-21T11:26:04.768Z,991.63
2018-12-21T11:27:04.752Z,991.68
2018-12-21T11:28:04.718Z,991.67
2018-12-21T11:29:04.704Z,991.65
2018-12-21T11:30:04.678Z,991.66
2018-12-21T11:31:04.653Z,991.72
2018-12-21T11:32:04.630Z,991.61
2018-12-21T11:33:04.632Z,991.66
2018-12-21T11:34:04.594Z,991.68
2018-12-21T11:35:04.568Z,991.59
2018-12-21T11:36:04.541Z,991.70
2018-12-21T11:37:04.521Z,991.59
2018-12-21T11:38:04.498Z,991.62
2018-12-21T11:39:04.474Z,991.59
2018-12-21T11:40:04.467Z,991.60
2018-12-21T11:41:04.426Z,991.62
2018-12-21T11:42:04.405Z,991.63
2018-12-21T11:43:04.379Z,991.62
2018-12-21T11:44:04.359Z,991.59
2018-12-21T11:45:04.337Z,991.48
2018-12-21T11:46:04.314Z,991.51
2018-12-21T11:47:04.301Z,991.51
2018-12-21T11:48:04.271Z,991.58
2018-12-21T11:49:04.259Z,991.56
2018-12-21T11:50:04.230Z,991.54
2018-12-21T11:51:04.207Z,991.53
2018-12-21T11:52:04.179Z,991.47
2018-12-21T11:53:04.157Z,991.45
2018-12-21T11:54:04.139Z,991.44
2018-12-21T11:55:04.112Z,991.38
2018-12-21T11:56:04.098Z,991.40
2018-12-21T11:57:04.070Z,991.41
2018-12-21T11:58:04.053Z,991.44
2018-12-21T11:59:04.027Z,991.39
2018-12-21T12:00:04.001Z,991.36
2018-12-21T12:01:03.979Z,991.40
2018-12-21T12:02:03.962Z,991.36
2018-12-21T12:03:03.935Z,991.35
2018-12-21T12:04:03.914Z,991.39
2018-12-21T12:05:03.900Z,991.40
2018-12-21T12:06:03.883Z,991.33
2018-12-21T12:07:03.848Z,991.40
2018-12-21T12:08:03.827Z,991.41
2018-12-21T12:09:06.382Z,991.33
2018-12-21T12:10:03.779Z,991.36
2018-12-21T12:11:03.763Z,991.33
2018-12-21T12:12:03.745Z,991.38
2018-12-21T12:13:03.716Z,991.35
2018-12-21T12:14:03.703Z,991.38
2018-12-21T12:15:03.669Z,991.33
2018-12-21T12:16:03.658Z,991.41
2018-12-21T12:17:03.629Z,991.29
2018-12-21T12:18:03.602Z,991.32